Terminal Aerodrome Forecast
Issued by NWS Albany, NY

Home | Current Version | Previous Version | Text Only | Print | Product List | Glossary On
Versions: 1 2 3 4 5 6 7 8 9 10 11 12 13 14 15 16 17 18 19
000
FTUS41 KALY 020526
TAFPOU
TAF
KPOU 020526Z 0206/0306 00000KT P6SM SKC
     FM021300 VRB03KT P6SM SKC
     FM021500 24006KT P6SM FEW060
     FM022300 VRB03KT P6SM SKC=

USA.gov is the U.S. government's official web portal to all federal, state and local government web resources and services.